Time;durP1;ratioP1;P1;durP2;ratioP2;P2;SDS_P1;SDS_P2;PMS_P1;PMS_P2;Temp;Humidity;BMP_temperature;BMP_pressure;BME280_temperature;BME280_humidity;BME280_pressure;Samples;Min_cycle;Max_cycle;Signal;HPM_P1;HPM_P2
2021/04/21 00:02:19;;;;;;;19.23;17.20;;;8.20;89.90;;;;;;5029915;28;20471;-86
2021/04/21 00:04:56;;;;;;;20.70;18.50;;;8.10;90.70;;;;;;5026200;28;20457;-86
2021/04/21 00:07:32;;;;;;;20.10;18.00;;;8.00;90.40;;;;;;5024379;28;20461;-80
2021/04/21 00:10:09;;;;;;;19.23;17.10;;;8.00;90.80;;;;;;5030201;28;20451;-79
2021/04/21 00:12:44;;;;;;;21.13;17.73;;;7.90;91.20;;;;;;5019606;28;20463;-80
2021/04/21 00:15:23;;;;;;;21.43;18.20;;;8.00;91.50;;;;;;5037069;28;20490;-79
2021/04/21 00:18:02;;;;;;;20.80;18.10;;;8.00;91.30;;;;;;5034430;28;20474;-87
2021/04/21 00:20:38;;;;;;;20.13;17.70;;;7.90;91.60;;;;;;5032377;28;20466;-81
2021/04/21 00:23:16;;;;;;;22.40;18.70;;;7.90;92.20;;;;;;5027328;28;20521;-80
2021/04/21 00:25:53;;;;;;;21.37;19.13;;;7.80;91.90;;;;;;5034493;28;20496;-79
2021/04/21 00:28:31;;;;;;;21.53;17.73;;;7.70;92.80;;;;;;5025610;28;20462;-89
2021/04/21 00:31:09;;;;;;;22.23;19.07;;;7.60;94.10;;;;;;5028946;28;20862;-81
2021/04/21 00:33:45;;;;;;;21.70;19.40;;;7.60;94.50;;;;;;5029687;28;20502;-80
2021/04/21 00:36:21;;;;;;;22.00;19.57;;;7.60;96.50;;;;;;5022220;28;20681;-79
2021/04/21 00:38:59;;;;;;;24.50;20.70;;;7.50;96.70;;;;;;5018522;28;20457;-79
2021/04/21 00:41:45;;;;;;;22.97;20.47;;;7.50;97.80;;;;;;5022174;28;20969;-79
2021/04/21 00:44:30;;;;;;;22.93;19.30;;;7.40;98.10;;;;;;5028557;28;20451;-79
2021/04/21 00:47:09;;;;;;;28.40;22.00;;;7.40;99.70;;;;;;5023538;28;20457;-78
2021/04/21 00:49:53;;;;;;;26.70;21.53;;;7.40;98.30;;;;;;5018844;28;20940;-79
2021/04/21 00:52:36;;;;;;;22.97;20.47;;;7.30;99.90;;;;;;5020910;28;20440;-80
2021/04/21 00:55:20;;;;;;;24.83;22.13;;;7.40;99.90;;;;;;5004342;28;20800;-79
2021/04/21 00:58:02;;;;;;;25.63;21.73;;;7.30;99.90;;;;;;5013888;28;20979;-81
2021/04/21 01:00:37;;;;;;;25.07;22.37;;;7.20;99.90;;;;;;5015151;28;20473;-83
2021/04/21 01:03:15;;;;;;;24.57;22.00;;;7.20;99.90;;;;;;5018856;28;20874;-82
2021/04/21 01:05:54;;;;;;;26.93;23.00;;;7.20;99.90;;;;;;5024220;28;20453;-81
2021/04/21 01:08:35;;;;;;;25.40;21.77;;;7.10;99.90;;;;;;5012551;28;20478;-80
2021/04/21 01:11:16;;;;;;;25.80;22.77;;;7.10;99.90;;;;;;5011104;28;20980;-79
2021/04/21 01:13:54;;;;;;;29.27;21.77;;;7.10;99.90;;;;;;5007442;28;20730;-79
2021/04/21 01:16:33;;;;;;;24.70;21.80;;;7.10;99.90;;;;;;5007626;28;20540;-81
2021/04/21 01:19:14;;;;;;;25.63;20.37;;;7.10;99.90;;;;;;5009303;28;20497;-81
2021/04/21 01:21:53;;;;;;;25.20;21.40;;;7.10;99.90;;;;;;5009844;28;20485;-79
2021/04/21 01:24:32;;;;;;;26.40;21.57;;;7.10;99.90;;;;;;5012954;28;20494;-81
2021/04/21 01:27:11;;;;;;;25.60;21.93;;;7.10;99.90;;;;;;5011570;28;20563;-81
2021/04/21 01:29:50;;;;;;;23.53;21.00;;;7.10;99.90;;;;;;5007446;28;20445;-82
2021/04/21 01:32:28;;;;;;;24.10;21.03;;;7.10;99.90;;;;;;5007603;28;20486;-80
2021/04/21 01:35:03;;;;;;;24.90;21.53;;;7.10;99.90;;;;;;5011311;28;20475;-80
2021/04/21 01:37:40;;;;;;;23.93;20.30;;;7.00;99.90;;;;;;5014894;28;20549;-81
2021/04/21 01:40:21;;;;;;;23.53;21.10;;;7.10;99.90;;;;;;5011636;28;20450;-80
2021/04/21 01:43:02;;;;;;;26.00;21.23;;;7.10;99.90;;;;;;5008092;28;20470;-78
2021/04/21 01:45:41;;;;;;;23.57;20.40;;;7.10;99.90;;;;;;5008395;28;20484;-80
2021/04/21 01:48:21;;;;;;;23.03;20.40;;;7.10;99.90;;;;;;5007392;28;20862;-81
2021/04/21 01:50:57;;;;;;;24.33;20.80;;;7.10;99.90;;;;;;5007751;28;20823;-79
2021/04/21 01:53:40;;;;;;;25.03;22.07;;;7.10;99.90;;;;;;5004309;28;20488;-79
2021/04/21 01:56:19;;;;;;;25.13;21.53;;;7.10;99.90;;;;;;5008826;28;20812;-79
2021/04/21 01:59:11;;;;;;;25.67;21.67;;;7.10;99.90;;;;;;5017858;28;21402;-79
2021/04/21 02:01:52;;;;;;;23.63;20.60;;;7.10;99.90;;;;;;5013084;28;20463;-79
2021/04/21 02:04:50;;;;;;;23.00;20.53;;;7.10;99.90;;;;;;5011464;28;20568;-80
2021/04/21 02:07:51;;;;;;;24.77;19.37;;;7.10;99.90;;;;;;5008615;28;20484;-78
2021/04/21 02:10:46;;;;;;;24.50;20.47;;;7.10;99.90;;;;;;5017564;28;20465;-83
2021/04/21 02:13:30;;;;;;;23.57;20.57;;;7.10;99.90;;;;;;5022505;28;20476;-83
2021/04/21 02:16:25;;;;;;;23.20;20.33;;;7.10;99.90;;;;;;5022334;28;20510;-79
2021/04/21 02:19:15;;;;;;;24.63;20.37;;;7.10;99.90;;;;;;5023228;28;20454;-79
2021/04/21 02:21:56;;;;;;;25.67;21.27;;;7.10;99.90;;;;;;5018503;28;20469;-79
2021/04/21 02:24:42;;;;;;;23.43;20.27;;;7.10;99.90;;;;;;5024135;28;20471;-79
2021/04/21 02:27:29;;;;;;;22.67;20.27;;;7.00;99.90;;;;;;5033343;28;20549;-80
2021/04/21 02:30:09;;;;;;;23.57;21.30;;;7.00;99.90;;;;;;5027155;28;20449;-79
2021/04/21 02:33:01;;;;;;;25.57;20.50;;;6.90;99.90;;;;;;5027394;28;20943;-79
2021/04/21 02:35:46;;;;;;;25.10;20.43;;;6.80;99.90;;;;;;5020981;28;20489;-79
2021/04/21 02:38:35;;;;;;;22.27;19.87;;;6.80;99.90;;;;;;5016974;28;20808;-79
2021/04/21 02:41:20;;;;;;;23.03;20.70;;;6.80;99.90;;;;;;5029354;28;20449;-80
2021/04/21 02:44:12;;;;;;;22.87;20.00;;;6.80;99.90;;;;;;5014865;28;20498;-79
2021/04/21 02:46:57;;;;;;;25.03;21.77;;;6.90;99.90;;;;;;5003625;28;20463;-79
2021/04/21 02:49:49;;;;;;;26.07;21.37;;;6.90;99.90;;;;;;5011259;28;20490;-81
2021/04/21 02:52:41;;;;;;;24.57;20.37;;;6.90;99.90;;;;;;5017179;28;20451;-78
2021/04/21 02:55:32;;;;;;;24.50;21.07;;;6.80;99.90;;;;;;5008143;28;20479;-80
2021/04/21 02:58:21;;;;;;;24.27;20.73;;;6.80;99.90;;;;;;4998387;28;20454;-79
2021/04/21 03:01:03;;;;;;;23.37;20.87;;;6.80;99.90;;;;;;5017604;28;20458;-83
2021/04/21 03:03:45;;;;;;;22.40;19.90;;;6.80;99.90;;;;;;5011143;28;20451;-79
2021/04/21 03:06:26;;;;;;;24.67;21.93;;;6.80;99.90;;;;;;5012173;28;20451;-79
2021/04/21 03:09:07;;;;;;;23.63;21.13;;;6.80;99.90;;;;;;5023179;28;20448;-79
2021/04/21 03:11:44;;;;;;;23.67;21.17;;;6.80;99.90;;;;;;5027191;28;20946;-79
2021/04/21 03:14:22;;;;;;;24.90;20.17;;;6.80;99.90;;;;;;5012213;28;21028;-79
2021/04/21 03:16:59;;;;;;;23.90;21.43;;;6.80;99.90;;;;;;5017999;28;20486;-79
2021/04/21 03:19:40;;;;;;;24.03;21.47;;;6.80;99.90;;;;;;5012224;28;20469;-79
2021/04/21 03:22:17;;;;;;;27.03;21.87;;;6.80;99.90;;;;;;5016376;28;20523;-79
2021/04/21 03:25:00;;;;;;;24.20;21.63;;;6.70;99.90;;;;;;5010976;28;20627;-78
2021/04/21 03:27:39;;;;;;;26.87;22.20;;;6.70;99.90;;;;;;5009546;28;20486;-77
2021/04/21 03:30:18;;;;;;;27.77;21.17;;;6.70;99.90;;;;;;5016060;28;20539;-87
2021/04/21 03:32:56;;;;;;;23.90;20.83;;;6.70;99.90;;;;;;5014409;28;20580;-78
2021/04/21 03:35:32;;;;;;;23.57;20.37;;;6.70;99.90;;;;;;5007736;28;20524;-85
2021/04/21 03:38:10;;;;;;;22.63;20.03;;;6.60;99.90;;;;;;5014243;28;20940;-82
2021/04/21 03:40:46;;;;;;;23.23;20.83;;;6.60;99.90;;;;;;5008340;28;20443;-78
2021/04/21 03:43:21;;;;;;;22.93;20.50;;;6.60;99.90;;;;;;5005595;28;20546;-79
2021/04/21 03:45:57;;;;;;;23.60;20.30;;;6.60;99.90;;;;;;5012783;28;20450;-78
2021/04/21 03:48:33;;;;;;;23.67;20.83;;;6.60;99.90;;;;;;5022106;28;20487;-85
2021/04/21 03:51:08;;;;;;;24.70;21.03;;;6.70;99.90;;;;;;5003798;28;20456;-78
2021/04/21 03:53:53;;;;;;;25.83;21.90;;;6.70;99.90;;;;;;5012027;28;20545;-79
2021/04/21 03:56:30;;;;;;;27.17;21.70;;;6.60;99.90;;;;;;5012028;28;20681;-78
2021/04/21 03:59:06;;;;;;;29.33;22.23;;;6.70;99.90;;;;;;5011611;28;20447;-79
2021/04/21 04:01:45;;;;;;;23.87;21.30;;;6.60;99.90;;;;;;5006399;28;20452;-78
2021/04/21 04:04:23;;;;;;;26.10;22.07;;;6.50;99.90;;;;;;5012505;28;20541;-78
2021/04/21 04:06:59;;;;;;;25.20;21.40;;;6.50;99.90;;;;;;5007721;28;20459;-79
2021/04/21 04:09:37;;;;;;;24.97;21.23;;;6.50;99.90;;;;;;5010285;28;20539;-82
2021/04/21 04:12:14;;;;;;;26.73;21.47;;;6.40;99.90;;;;;;5010321;28;20482;-79
2021/04/21 04:14:50;;;;;;;25.27;22.37;;;6.40;99.90;;;;;;5012627;28;20481;-86
2021/04/21 04:17:28;;;;;;;27.53;21.20;;;6.40;99.90;;;;;;5007068;28;20455;-78
2021/04/21 04:20:04;;;;;;;25.00;22.30;;;6.30;99.90;;;;;;5012240;28;20451;-80
2021/04/21 04:22:42;;;;;;;25.17;21.00;;;6.40;99.90;;;;;;5009380;28;20466;-84
2021/04/21 04:25:19;;;;;;;23.30;20.50;;;6.30;99.90;;;;;;5020161;28;20439;-82
2021/04/21 04:27:56;;;;;;;24.70;21.93;;;6.30;99.90;;;;;;5019925;28;20458;-85
2021/04/21 04:30:39;;;;;;;26.47;22.77;;;6.40;99.90;;;;;;5024499;28;20512;-82
2021/04/21 04:33:17;;;;;;;23.20;20.70;;;6.50;99.90;;;;;;5008466;28;20537;-82
2021/04/21 04:35:52;;;;;;;26.67;22.23;;;6.80;99.90;;;;;;5010952;28;20480;-83
2021/04/21 04:38:28;;;;;;;24.47;21.80;;;6.90;96.80;;;;;;5024645;28;20490;-89
2021/04/21 04:41:03;;;;;;;25.97;22.43;;;7.00;94.50;;;;;;5026920;28;20457;-84
2021/04/21 04:43:41;;;;;;;28.10;22.70;;;6.70;96.70;;;;;;5015003;28;20786;-82
2021/04/21 04:46:19;;;;;;;25.47;21.40;;;6.70;98.20;;;;;;5015843;28;20457;-83
2021/04/21 04:49:08;;;;;;;27.03;22.20;;;6.70;98.20;;;;;;5012871;28;20466;-84
2021/04/21 04:51:46;;;;;;;27.73;21.33;;;6.70;97.00;;;;;;5016943;28;20529;-87
2021/04/21 04:54:21;;;;;;;23.10;19.77;;;6.70;97.80;;;;;;5013775;28;20506;-81
2021/04/21 04:56:57;;;;;;;27.53;22.80;;;6.60;97.50;;;;;;5019263;28;20455;-81
2021/04/21 04:59:35;;;;;;;27.20;23.07;;;6.70;97.70;;;;;;5015257;28;20484;-83
2021/04/21 05:02:12;;;;;;;25.73;22.47;;;6.90;97.60;;;;;;5015167;28;20458;-82
2021/04/21 05:04:59;;;;;;;24.80;21.27;;;6.90;98.50;;;;;;5012232;28;20533;-88
2021/04/21 05:07:38;;;;;;;24.30;21.73;;;7.00;94.50;;;;;;5015862;28;21051;-83
2021/04/21 05:10:26;;;;;;;23.70;21.20;;;7.10;94.80;;;;;;5013521;28;20464;-86
2021/04/21 05:13:05;;;;;;;23.67;20.73;;;7.40;97.90;;;;;;5015965;28;20484;-88
2021/04/21 05:16:11;;;;;;;25.03;20.80;;;7.60;93.10;;;;;;5014092;28;20470;-86
2021/04/21 05:19:37;;;;;;;22.83;20.43;;;7.60;90.90;;;;;;5029518;28;20494;-82
2021/04/21 05:22:45;;;;;;;21.67;19.13;;;7.50;91.00;;;;;;5020297;28;20457;-86
2021/04/21 05:25:48;;;;;;;26.73;21.87;;;7.50;91.00;;;;;;5016835;28;20458;-84
2021/04/21 05:28:56;;;;;;;23.43;20.90;;;7.50;90.40;;;;;;5016655;28;20455;-89
2021/04/21 05:32:06;;;;;;;25.43;21.73;;;7.80;90.40;;;;;;4965635;28;20473;-84
2021/04/21 05:35:15;;;;;;;24.43;21.60;;;7.80;89.90;;;;;;5013348;28;20861;-82
2021/04/21 05:38:27;;;;;;;25.13;20.17;;;7.90;88.50;;;;;;5024088;28;20470;-83
2021/04/21 05:41:35;;;;;;;25.37;21.37;;;8.30;87.90;;;;;;5021667;28;20569;-84
2021/04/21 05:44:53;;;;;;;24.33;20.50;;;8.70;84.90;;;;;;4936517;28;20461;-82
2021/04/21 05:47:58;;;;;;;24.87;20.60;;;9.20;80.90;;;;;;5017136;28;20459;-83
2021/04/21 05:51:07;;;;;;;23.50;20.50;;;9.10;81.30;;;;;;5002902;28;21045;-90
2021/04/21 05:54:09;;;;;;;22.27;19.20;;;9.30;80.00;;;;;;5032501;28;20505;-84
2021/04/21 05:57:15;;;;;;;26.98;23.42;;;9.60;79.50;;;;;;5019542;28;21066;-88
2021/04/21 06:00:24;;;;;;;24.53;21.93;;;10.10;78.00;;;;;;5007541;28;20192;-87
2021/04/21 06:03:05;;;;;;;26.23;21.90;;;9.80;76.90;;;;;;4990663;28;21052;-87
2021/04/21 06:05:40;;;;;;;23.20;20.23;;;10.10;76.30;;;;;;5022750;28;20475;-88
2021/04/21 06:08:22;;;;;;;23.60;20.63;;;10.10;76.20;;;;;;5010897;28;21075;-89
2021/04/21 06:11:01;;;;;;;22.67;20.30;;;10.30;75.60;;;;;;5011206;28;20446;-88
2021/04/21 06:13:41;;;;;;;27.33;21.27;;;10.50;74.90;;;;;;5017833;28;20982;-88
2021/04/21 06:16:20;;;;;;;23.17;19.33;;;10.20;74.40;;;;;;5012479;28;20519;-87
2021/04/21 06:19:03;;;;;;;25.30;21.73;;;10.00;75.10;;;;;;5011435;28;20814;-88
2021/04/21 06:21:46;;;;;;;24.17;21.67;;;10.30;74.60;;;;;;5014663;28;20448;-87
2021/04/21 06:24:26;;;;;;;22.90;20.50;;;10.90;74.80;;;;;;5016857;28;20466;-86
2021/04/21 06:27:21;;;;;;;24.83;20.63;;;11.10;74.20;;;;;;5009065;28;20456;-82
2021/04/21 06:30:04;;;;;;;26.10;21.90;;;11.20;73.50;;;;;;5014454;28;21208;-88
2021/04/21 06:32:39;;;;;;;23.03;20.70;;;11.10;73.50;;;;;;5017659;28;20479;-81
2021/04/21 06:35:16;;;;;;;25.37;22.40;;;11.20;73.00;;;;;;5023901;28;20506;-79
2021/04/21 06:37:51;;;;;;;23.90;21.43;;;10.60;72.60;;;;;;5006295;28;20459;-81
2021/04/21 06:40:31;;;;;;;24.33;21.70;;;10.60;73.30;;;;;;5012391;28;20999;-80
2021/04/21 06:43:07;;;;;;;24.30;21.70;;;10.60;73.20;;;;;;5009495;28;20542;-81
2021/04/21 06:45:42;;;;;;;25.47;21.37;;;10.50;73.30;;;;;;5018147;28;20481;-84
2021/04/21 06:51:13;;;;;;;25.60;22.80;;;10.50;73.50;;;;;;5011925;28;20484;-85
2021/04/21 06:53:44;;;;;;;26.37;23.30;;;10.40;73.70;;;;;;5010266;28;20782;-85
2021/04/21 06:56:18;;;;;;;25.70;22.90;;;10.60;73.60;;;;;;5013424;28;20541;-85
2021/04/21 06:58:58;;;;;;;25.67;22.77;;;10.80;73.60;;;;;;5010928;28;20542;-88
2021/04/21 07:04:21;;;;;;;28.60;23.47;;;11.00;73.70;;;;;;5013979;28;20451;-87
2021/04/21 07:07:02;;;;;;;29.37;23.90;;;11.50;73.40;;;;;;5023944;28;20829;-85
2021/04/21 07:09:37;;;;;;;29.87;24.40;;;11.80;72.90;;;;;;5022071;28;20479;-87
2021/04/21 07:15:04;;;;;;;30.67;25.00;;;11.90;71.60;;;;;;5031279;28;20482;-88
2021/04/21 07:18:00;;;;;;;28.87;25.23;;;11.20;70.80;;;;;;5045075;28;20458;-90
2021/04/21 07:20:37;;;;;;;32.30;27.70;;;11.40;71.70;;;;;;5023036;28;20460;-87
2021/04/21 07:26:13;;;;;;;32.50;25.73;;;12.00;71.00;;;;;;5026024;28;20437;-85
2021/04/21 07:28:50;;;;;;;26.93;24.07;;;12.10;70.90;;;;;;5028282;28;20451;-84
2021/04/21 07:31:24;;;;;;;32.43;25.03;;;12.40;70.50;;;;;;5019792;28;20532;-85
2021/04/21 07:33:58;;;;;;;27.30;24.40;;;12.50;70.10;;;;;;5023904;28;20465;-87
2021/04/21 07:36:31;;;;;;;29.47;25.60;;;12.50;70.10;;;;;;5021061;28;20478;-83
2021/04/21 07:39:11;;;;;;;29.23;25.50;;;12.50;69.90;;;;;;5014887;28;20448;-84
2021/04/21 07:41:48;;;;;;;27.73;24.87;;;12.40;70.10;;;;;;5019722;28;20456;-85
2021/04/21 07:44:50;;;;;;;28.27;25.20;;;12.30;70.20;;;;;;5014052;28;20467;-86
2021/04/21 07:47:27;;;;;;;26.03;23.30;;;12.50;69.80;;;;;;5011039;28;20460;-83
2021/04/21 07:50:13;;;;;;;28.37;25.37;;;12.40;69.60;;;;;;5007217;28;20482;-86
2021/04/21 07:52:48;;;;;;;31.97;25.77;;;12.30;69.90;;;;;;5019039;28;20518;-89
2021/04/21 07:58:11;;;;;;;28.33;25.43;;;12.80;69.50;;;;;;5015902;28;20200;-88
2021/04/21 08:00:56;;;;;;;27.30;24.20;;;12.90;68.90;;;;;;5016271;28;20463;-88
2021/04/21 08:06:49;;;;;;;28.10;25.40;;;13.10;68.70;;;;;;5029763;28;20475;-89
2021/04/21 08:09:25;;;;;;;30.40;25.10;;;13.10;68.10;;;;;;5025138;28;20443;-83
2021/04/21 08:12:19;;;;;;;27.60;24.33;;;13.00;68.10;;;;;;5025187;28;20447;-83
2021/04/21 08:15:01;;;;;;;27.77;24.77;;;13.00;68.10;;;;;;5019647;28;20459;-85
2021/04/21 08:18:01;;;;;;;33.03;25.57;;;12.90;67.80;;;;;;5018995;28;20554;-86
2021/04/21 08:20:44;;;;;;;33.83;25.83;;;12.90;67.80;;;;;;5013973;28;20561;-86
2021/04/21 08:23:31;;;;;;;27.30;24.10;;;13.00;67.80;;;;;;5019598;28;20735;-88
2021/04/21 08:26:09;;;;;;;27.40;24.60;;;13.00;67.20;;;;;;5026408;28;20494;-92
2021/04/21 08:28:50;;;;;;;26.10;23.33;;;12.90;67.10;;;;;;5015579;28;20475;-88
2021/04/21 08:31:56;;;;;;;26.03;23.23;;;13.00;67.00;;;;;;5017946;28;20598;-90
2021/04/21 08:34:42;;;;;;;25.83;23.23;;;13.30;66.80;;;;;;5012767;28;20449;-84
2021/04/21 08:37:18;;;;;;;26.33;21.50;;;13.50;65.90;;;;;;5011317;28;20564;-85
2021/04/21 08:40:02;;;;;;;22.67;20.37;;;13.60;64.70;;;;;;5011508;28;20463;-88
2021/04/21 08:42:41;;;;;;;22.20;20.07;;;13.80;64.00;;;;;;5021032;28;20455;-86
2021/04/21 08:45:18;;;;;;;19.47;17.43;;;13.70;63.90;;;;;;5013718;28;20538;-87
2021/04/21 08:47:54;;;;;;;20.50;18.20;;;13.80;62.60;;;;;;5017646;28;20505;-87
2021/04/21 08:50:34;;;;;;;26.93;18.87;;;14.00;62.00;;;;;;5019076;28;20466;-86
2021/04/21 08:53:11;;;;;;;21.97;19.77;;;14.20;62.10;;;;;;5016940;28;20443;-86
2021/04/21 08:55:45;;;;;;;22.23;20.13;;;14.40;62.00;;;;;;5016162;28;20464;-87
2021/04/21 08:58:22;;;;;;;20.73;18.63;;;14.80;61.50;;;;;;5010962;28;20474;-89
2021/04/21 09:13:10;;;;;;;17.17;15.20;;;14.90;58.00;;;;;;5030425;28;20443;-86
2021/04/21 09:15:50;;;;;;;15.40;13.53;;;15.40;58.20;;;;;;5018256;28;20566;-88
2021/04/21 09:18:33;;;;;;;16.43;14.70;;;15.80;57.30;;;;;;5017650;28;20963;-91
2021/04/21 09:21:23;;;;;;;15.83;14.33;;;15.60;56.50;;;;;;5021424;28;20461;-88
2021/04/21 09:24:05;;;;;;;18.07;16.00;;;15.70;56.10;;;;;;5036475;28;20498;-88
2021/04/21 09:26:41;;;;;;;16.15;14.55;;;15.80;56.00;;;;;;5018666;28;20339;-76
2021/04/21 09:29:26;;;;;;;17.40;15.77;;;16.10;55.80;;;;;;5019145;28;20189;-84
2021/04/21 09:32:13;;;;;;;14.90;13.50;;;16.10;56.40;;;;;;5024179;28;20452;-80
2021/04/21 09:35:09;;;;;;;15.83;14.00;;;15.90;55.20;;;;;;5025375;28;20476;-83
2021/04/21 09:37:44;;;;;;;15.43;13.60;;;15.60;55.40;;;;;;5022221;28;20460;-86
2021/04/21 09:43:34;;;;;;;10.90;9.80;;;16.30;53.20;;;;;;5013901;28;20196;-87
2021/04/21 09:46:23;;;;;;;16.87;13.90;;;16.00;52.20;;;;;;5014810;28;20515;-88
2021/04/21 09:49:13;;;;;;;15.03;13.53;;;15.70;52.90;;;;;;5015494;28;20482;-87
2021/04/21 09:52:00;;;;;;;15.13;13.03;;;16.10;53.50;;;;;;5012863;28;20517;-89
2021/04/21 10:01:42;;;;;;;15.87;14.27;;;15.90;52.70;;;;;;5020998;28;20467;-86
2021/04/21 10:20:38;;;;;;;16.10;11.93;;;16.60;51.50;;;;;;4981604;28;20484;-87
2021/04/21 10:36:30;;;;;;;13.87;12.47;;;16.90;50.40;;;;;;5009032;28;20837;-87
2021/04/21 10:46:19;;;;;;;14.50;13.20;;;17.10;49.80;;;;;;5017701;28;20494;-87
2021/04/21 10:48:54;;;;;;;15.53;13.93;;;17.20;49.30;;;;;;5014932;28;21146;-86
2021/04/21 10:51:49;;;;;;;15.85;14.35;;;17.10;50.00;;;;;;5013321;28;20534;-83
2021/04/21 10:54:38;;;;;;;15.13;13.30;;;17.80;50.00;;;;;;5016294;28;20198;-90
2021/04/21 10:57:34;;;;;;;15.47;13.83;;;17.70;47.90;;;;;;5015316;28;20466;-86
2021/04/21 11:00:20;;;;;;;17.73;13.90;;;17.40;49.50;;;;;;5015697;28;20449;-87
2021/04/21 11:03:20;;;;;;;15.10;13.80;;;18.30;49.80;;;;;;5015750;28;20513;-88
2021/04/21 11:06:08;;;;;;;14.13;12.73;;;18.10;48.20;;;;;;5015152;28;20468;-86
2021/04/21 11:08:58;;;;;;;14.47;12.10;;;17.80;48.10;;;;;;5022636;28;20470;-80
2021/04/21 11:11:40;;;;;;;14.37;12.53;;;17.50;47.00;;;;;;5014390;28;20453;-81
2021/04/21 11:14:43;;;;;;;15.13;13.67;;;17.70;47.40;;;;;;5015292;28;20468;-84
2021/04/21 11:17:19;;;;;;;13.97;12.80;;;18.10;47.90;;;;;;5023235;28;20462;-83
2021/04/21 11:20:05;;;;;;;15.77;14.17;;;18.50;47.70;;;;;;5023526;28;20454;-82
2021/04/21 11:22:52;;;;;;;13.57;12.27;;;17.60;48.10;;;;;;5025370;28;20452;-84
2021/04/21 11:25:32;;;;;;;11.97;10.80;;;17.40;46.80;;;;;;5021194;28;20455;-80
2021/04/21 11:28:08;;;;;;;11.73;10.53;;;17.40;46.20;;;;;;5024473;28;20543;-83
2021/04/21 11:30:59;;;;;;;11.53;10.33;;;17.60;46.00;;;;;;5032820;28;20455;-85
2021/04/21 11:34:02;;;;;;;14.57;11.40;;;18.00;45.70;;;;;;5032332;28;20456;-83
2021/04/21 11:36:55;;;;;;;11.63;9.67;;;18.60;45.50;;;;;;5017099;28;20468;-82
2021/04/21 11:40:03;;;;;;;11.10;10.10;;;19.00;45.00;;;;;;5016884;28;20483;-81
2021/04/21 11:42:52;;;;;;;11.00;9.77;;;18.40;44.90;;;;;;5018019;28;20831;-84
2021/04/21 11:45:30;;;;;;;10.13;8.90;;;18.20;44.30;;;;;;5028731;28;20510;-82
2021/04/21 11:48:25;;;;;;;10.20;6.70;;;17.80;43.50;;;;;;5016336;28;20443;-85
2021/04/21 11:51:20;;;;;;;7.10;5.57;;;17.50;44.30;;;;;;5029141;28;20997;-80
2021/04/21 11:53:57;;;;;;;12.17;6.07;;;16.90;44.90;;;;;;5020259;28;20455;-84
2021/04/21 11:56:39;;;;;;;9.23;8.13;;;16.60;45.60;;;;;;5013205;28;20507;-87
2021/04/21 11:59:12;;;;;;;10.37;8.40;;;16.80;46.20;;;;;;5024205;28;21043;-79
2021/04/21 12:01:47;;;;;;;7.90;6.80;;;16.80;46.70;;;;;;5024481;28;20455;-82
2021/04/21 12:04:23;;;;;;;7.57;6.93;;;16.80;46.00;;;;;;5029391;28;20470;-81
2021/04/21 12:06:59;;;;;;;7.47;6.70;;;16.50;46.50;;;;;;5041091;28;20454;-79
2021/04/21 12:09:40;;;;;;;13.30;7.90;;;16.40;47.10;;;;;;5024321;28;20450;-79
2021/04/21 12:12:24;;;;;;;13.53;9.70;;;16.20;50.80;;;;;;5018907;28;20472;-85
2021/04/21 12:15:12;;;;;;;10.70;9.73;;;13.80;59.90;;;;;;5026122;28;20990;-84
2021/04/21 12:18:01;;;;;;;12.73;10.40;;;13.20;68.50;;;;;;5025060;28;20467;-80
2021/04/21 12:20:36;;;;;;;11.27;10.17;;;13.60;65.30;;;;;;5024360;28;20563;-79
2021/04/21 12:23:11;;;;;;;11.73;10.53;;;13.90;65.20;;;;;;5014371;28;20471;-80
2021/04/21 12:29:00;;;;;;;11.60;10.50;;;14.10;67.80;;;;;;5029256;28;20479;-82
2021/04/21 12:31:35;;;;;;;14.60;11.40;;;14.40;63.10;;;;;;5025821;28;20451;-84
2021/04/21 12:34:16;;;;;;;12.80;11.07;;;14.70;64.30;;;;;;5025671;28;21006;-85
2021/04/21 12:40:03;;;;;;;10.50;9.10;;;14.90;60.50;;;;;;5030487;28;20521;-83
2021/04/21 12:42:41;;;;;;;10.23;9.10;;;14.80;56.60;;;;;;5030665;28;20470;-84
2021/04/21 12:45:45;;;;;;;11.13;8.20;;;15.10;58.00;;;;;;5028432;28;20476;-83
2021/04/21 12:48:30;;;;;;;7.47;6.50;;;15.00;56.00;;;;;;5033744;28;20444;-82
2021/04/21 12:51:05;;;;;;;10.30;7.80;;;15.10;53.30;;;;;;5036132;28;20440;-82
2021/04/21 12:59:54;;;;;;;7.93;7.22;;;15.60;54.80;;;;;;5010133;28;20815;-77
2021/04/21 13:02:49;;;;;;;7.97;7.20;;;16.00;51.60;;;;;;5005484;28;20566;-77
2021/04/21 13:05:37;;;;;;;11.83;8.43;;;16.40;52.90;;;;;;5014567;28;20448;-77
2021/04/21 13:08:25;;;;;;;9.10;7.40;;;16.70;53.80;;;;;;5014117;28;21024;-78
2021/04/21 13:11:03;;;;;;;7.57;6.60;;;16.40;51.10;;;;;;5011678;28;20968;-77
2021/04/21 13:13:41;;;;;;;8.83;7.00;;;16.50;51.00;;;;;;5027219;28;20475;-84
2021/04/21 13:16:39;;;;;;;7.60;6.80;;;16.80;51.30;;;;;;5013848;28;20920;-80
2021/04/21 13:19:40;;;;;;;7.07;6.30;;;17.40;49.60;;;;;;5026225;28;20449;-82
2021/04/21 13:22:16;;;;;;;8.53;6.73;;;17.70;49.70;;;;;;5028088;28;20441;-83
2021/04/21 13:28:13;;;;;;;8.40;7.70;;;17.80;48.00;;;;;;4978197;28;20507;-77
2021/04/21 13:30:48;;;;;;;9.80;8.20;;;17.20;47.80;;;;;;5029842;28;20207;-83
2021/04/21 13:33:29;;;;;;;8.50;7.67;;;17.10;48.10;;;;;;5032093;28;20451;-87
2021/04/21 13:39:15;;;;;;;10.07;8.13;;;16.60;47.80;;;;;;5012311;28;20555;-86
2021/04/21 13:45:01;;;;;;;10.27;9.27;;;16.60;48.30;;;;;;5006767;28;20799;-77
2021/04/21 13:47:37;;;;;;;10.93;8.03;;;16.70;48.70;;;;;;5004586;28;20201;-75
2021/04/21 13:50:15;;;;;;;8.77;7.90;;;16.80;48.80;;;;;;5003699;28;20511;-75
2021/04/21 13:52:51;;;;;;;8.20;7.50;;;17.00;49.70;;;;;;5004702;28;20475;-75
2021/04/21 13:55:26;;;;;;;9.47;8.60;;;16.50;48.90;;;;;;5008230;28;20540;-79
2021/04/21 13:58:01;;;;;;;9.27;8.33;;;16.30;49.50;;;;;;5006798;28;20461;-76
2021/04/21 14:00:44;;;;;;;14.97;9.80;;;15.50;50.90;;;;;;5013187;28;20459;-87
2021/04/21 14:03:19;;;;;;;11.17;10.17;;;14.30;52.90;;;;;;5020994;28;20448;-84
2021/04/21 14:05:55;;;;;;;11.60;10.40;;;13.70;59.30;;;;;;5018822;28;20460;-81
2021/04/21 14:08:30;;;;;;;16.23;12.70;;;13.10;61.40;;;;;;5019497;28;20493;-83
2021/04/21 14:11:05;;;;;;;15.30;12.80;;;12.90;65.00;;;;;;5012063;28;20517;-84
2021/04/21 14:13:41;;;;;;;12.07;10.87;;;13.20;66.50;;;;;;5015005;28;20478;-84
2021/04/21 14:16:16;;;;;;;13.87;12.57;;;13.00;65.60;;;;;;5013888;28;20464;-84
2021/04/21 14:18:48;;;;;;;13.27;12.07;;;13.30;65.00;;;;;;5017529;28;20451;-85
2021/04/21 14:21:24;;;;;;;13.57;12.30;;;13.70;63.70;;;;;;5010742;28;20952;-84
2021/04/21 14:23:59;;;;;;;12.60;11.40;;;14.10;64.20;;;;;;5020109;28;20493;-86
2021/04/21 14:26:33;;;;;;;11.57;10.47;;;14.70;61.60;;;;;;5014775;28;20825;-84
2021/04/21 14:29:09;;;;;;;13.47;10.50;;;14.80;62.10;;;;;;5015123;28;20459;-86
2021/04/21 14:42:15;;;;;;;11.07;8.40;;;15.30;56.30;;;;;;4985648;28;20457;-82
2021/04/21 14:44:49;;;;;;;8.23;7.43;;;15.10;55.40;;;;;;5011791;28;20511;-82
2021/04/21 14:47:24;;;;;;;9.20;8.40;;;15.20;54.30;;;;;;5019185;28;20463;-81
2021/04/21 14:49:59;;;;;;;8.83;7.93;;;15.30;54.50;;;;;;5027735;28;20442;-80
2021/04/21 14:52:38;;;;;;;8.67;7.87;;;15.40;54.20;;;;;;5019361;28;20451;-81
2021/04/21 14:55:16;;;;;;;9.53;7.80;;;15.70;54.00;;;;;;5010685;28;20479;-80
2021/04/21 14:57:51;;;;;;;7.90;7.20;;;15.90;54.50;;;;;;5007642;28;20527;-80
2021/04/21 15:00:28;;;;;;;8.60;7.77;;;16.40;55.00;;;;;;5022503;28;20451;-81
2021/04/21 15:03:03;;;;;;;11.90;7.70;;;16.40;54.40;;;;;;5022114;28;20455;-82
2021/04/21 15:05:37;;;;;;;8.93;8.13;;;16.30;54.20;;;;;;5028068;28;20544;-80
2021/04/21 15:11:45;;;;;;;8.67;7.93;;;16.10;52.90;;;;;;5016936;28;20782;-81
2021/04/21 15:14:22;;;;;;;8.53;7.73;;;16.10;52.50;;;;;;5018995;28;20467;-80
2021/04/21 15:42:13;;;;;;;9.50;8.57;;;16.80;49.80;;;;;;5034755;28;20491;-81
2021/04/21 15:44:48;;;;;;;11.37;10.27;;;16.80;49.80;;;;;;5034463;28;20443;-77
2021/04/21 15:47:23;;;;;;;11.48;10.38;;;16.60;50.90;;;;;;5021011;28;20456;-84
2021/04/21 15:49:58;;;;;;;12.07;10.80;;;16.70;50.90;;;;;;5040475;28;20199;-84
2021/04/21 15:52:34;;;;;;;11.50;10.33;;;16.80;51.60;;;;;;5034660;28;20458;-84
2021/04/21 15:55:12;;;;;;;17.03;11.53;;;16.90;52.50;;;;;;5036005;28;20461;-84
2021/04/21 15:57:49;;;;;;;10.13;9.23;;;16.60;53.10;;;;;;5042965;28;20474;-84
2021/04/21 16:00:25;;;;;;;11.23;10.13;;;16.30;54.60;;;;;;5038642;28;20562;-84
2021/04/21 16:03:02;;;;;;;11.43;10.23;;;16.10;55.60;;;;;;5039660;28;20437;-88
2021/04/21 16:05:43;;;;;;;12.07;10.87;;;15.80;55.60;;;;;;5050057;28;20199;-87
2021/04/21 16:08:18;;;;;;;12.93;11.60;;;15.50;56.00;;;;;;5050223;28;20455;-90